createdAt,value
2023-04-03T00:02:22.041Z,2.81
2023-04-03T00:04:52.847Z,2.78
2023-04-03T00:07:23.551Z,2.73
2023-04-03T00:09:54.213Z,2.68
2023-04-03T00:12:24.957Z,2.64
2023-04-03T00:14:55.797Z,2.58
2023-04-03T00:17:27.330Z,2.54
2023-04-03T00:19:58.062Z,2.49
2023-04-03T00:22:29.752Z,2.45
2023-04-03T00:25:00.414Z,2.42
2023-04-03T00:27:31.136Z,2.39
2023-04-03T00:30:01.792Z,2.37
2023-04-03T00:32:33.086Z,2.33
2023-04-03T00:35:03.772Z,2.29
2023-04-03T00:37:34.764Z,2.25
2023-04-03T00:40:07.380Z,2.20
2023-04-03T00:42:39.780Z,2.16
2023-04-03T00:45:30.897Z,2.10
2023-04-03T00:48:02.623Z,2.06
2023-04-03T00:50:35.203Z,2.02
2023-04-03T00:53:08.435Z,1.98
2023-04-03T00:55:40.195Z,1.96
2023-04-03T00:58:12.726Z,1.92
2023-04-03T01:00:48.909Z,1.89
2023-04-03T01:03:19.649Z,1.86
2023-04-03T01:05:50.825Z,1.84
2023-04-03T01:08:21.650Z,1.79
2023-04-03T01:10:53.788Z,1.75
2023-04-03T01:13:28.759Z,1.71
2023-04-03T01:16:02.383Z,1.66
2023-04-03T01:18:34.703Z,1.63
2023-04-03T01:21:32.217Z,1.58
2023-04-03T01:24:20.105Z,1.53
2023-04-03T01:26:52.373Z,1.52
2023-04-03T01:29:23.210Z,1.50
2023-04-03T01:31:56.911Z,1.47
2023-04-03T01:34:30.253Z,1.44
2023-04-03T01:37:01.250Z,1.41
2023-04-03T01:39:32.182Z,1.38
2023-04-03T01:42:05.535Z,1.35
2023-04-03T01:44:39.978Z,1.32
2023-04-03T01:47:11.189Z,1.30
2023-04-03T01:49:42.870Z,1.27
2023-04-03T01:52:13.692Z,1.25
2023-04-03T01:54:44.613Z,1.25
2023-04-03T01:57:16.299Z,1.24
2023-04-03T01:59:48.104Z,1.22
2023-04-03T02:02:19.991Z,1.22
2023-04-03T02:04:50.940Z,1.20
2023-04-03T02:07:22.429Z,1.18
2023-04-03T02:09:53.208Z,1.15
2023-04-03T02:12:24.490Z,1.13
2023-04-03T02:14:55.377Z,1.12
2023-04-03T02:17:26.170Z,1.10
2023-04-03T02:19:59.498Z,1.07
2023-04-03T02:22:30.376Z,1.04
2023-04-03T02:25:01.638Z,1.02
2023-04-03T02:27:32.871Z,1.00
2023-04-03T02:30:03.572Z,0.97
2023-04-03T02:32:34.503Z,0.94
2023-04-03T02:35:07.907Z,0.91
2023-04-03T02:37:39.310Z,0.88
2023-04-03T02:40:12.888Z,0.86
2023-04-03T02:42:43.717Z,0.83
2023-04-03T02:45:14.634Z,0.81
2023-04-03T02:47:46.758Z,0.78
2023-04-03T02:50:18.064Z,0.75
2023-04-03T02:52:48.804Z,0.71
2023-04-03T02:55:20.068Z,0.68
2023-04-03T02:57:52.081Z,0.66
2023-04-03T03:00:24.006Z,0.62
2023-04-03T03:02:54.847Z,0.58
2023-04-03T03:05:25.742Z,0.55
2023-04-03T03:07:56.786Z,0.52
2023-04-03T03:10:27.728Z,0.49
2023-04-03T03:12:58.437Z,0.46
2023-04-03T03:15:29.159Z,0.43
2023-04-03T03:18:00.779Z,0.41
2023-04-03T03:20:32.264Z,0.38
2023-04-03T03:23:03.005Z,0.35
2023-04-03T03:25:33.727Z,0.31
2023-04-03T03:28:04.404Z,0.29
2023-04-03T03:30:35.975Z,0.27
2023-04-03T03:33:06.951Z,0.26
2023-04-03T03:35:38.063Z,0.25
2023-04-03T03:38:08.974Z,0.24
2023-04-03T03:40:40.068Z,0.22
2023-04-03T03:43:11.163Z,0.21
2023-04-03T03:45:42.449Z,0.18
2023-04-03T03:48:13.361Z,0.17
2023-04-03T03:50:44.636Z,0.15
2023-04-03T03:53:15.970Z,0.13
2023-04-03T03:55:47.301Z,0.10
2023-04-03T03:58:18.338Z,0.07
2023-04-03T04:00:49.285Z,0.04
2023-04-03T04:03:20.805Z,0.03
2023-04-03T04:05:52.438Z,0.01
2023-04-03T04:08:23.425Z,-0.00
2023-04-03T04:10:54.279Z,-0.03
2023-04-03T04:13:26.258Z,-0.03
2023-04-03T04:15:57.073Z,-0.03
2023-04-03T04:18:28.025Z,-0.03
2023-04-03T04:21:04.311Z,-0.02
2023-04-03T04:23:36.238Z,0.01
2023-04-03T04:26:08.006Z,0.02
2023-04-03T04:28:40.268Z,0.04
2023-04-03T04:31:11.899Z,0.05
2023-04-03T04:33:48.320Z,0.07
2023-04-03T04:36:19.679Z,0.10
2023-04-03T04:38:53.768Z,0.15
2023-04-03T04:41:25.776Z,0.19
2023-04-03T04:43:57.028Z,0.26
2023-04-03T04:46:28.512Z,0.54
2023-04-03T04:49:01.682Z,1.39
2023-04-03T04:51:41.075Z,2.27
2023-04-03T04:54:21.351Z,3.31
2023-04-03T04:56:52.943Z,4.58
2023-04-03T04:59:24.855Z,5.86
2023-04-03T05:01:57.279Z,6.99
2023-04-03T05:04:28.510Z,8.12
2023-04-03T05:07:04.142Z,9.27
2023-04-03T05:09:35.902Z,10.33
2023-04-03T05:12:07.026Z,11.30
2023-04-03T05:14:43.059Z,12.28
2023-04-03T05:17:14.123Z,13.11
2023-04-03T05:19:48.127Z,13.80
2023-04-03T05:22:19.515Z,14.49
2023-04-03T05:24:50.261Z,15.24
2023-04-03T05:27:21.555Z,15.92
2023-04-03T05:29:57.075Z,16.39
2023-04-03T05:32:29.118Z,16.64
2023-04-03T05:35:18.003Z,16.99
2023-04-03T05:37:49.304Z,17.43
2023-04-03T05:40:21.622Z,17.79
2023-04-03T05:42:54.503Z,18.21
2023-04-03T05:45:27.257Z,18.61
2023-04-03T05:47:58.294Z,18.44
2023-04-03T05:50:29.598Z,17.44
2023-04-03T05:53:01.358Z,16.50
2023-04-03T05:55:33.610Z,15.49
2023-04-03T05:58:04.563Z,14.46
2023-04-03T06:00:35.965Z,13.59
2023-04-03T06:03:07.769Z,13.84
2023-04-03T06:05:39.066Z,14.62
2023-04-03T06:08:10.712Z,14.59
2023-04-03T06:10:41.562Z,14.25
2023-04-03T06:13:13.149Z,14.32
2023-04-03T06:15:43.983Z,15.16
2023-04-03T06:18:14.716Z,15.49
2023-04-03T06:20:45.560Z,15.22
2023-04-03T06:23:16.302Z,14.70
2023-04-03T06:25:47.108Z,15.01
2023-04-03T06:28:20.313Z,15.80
2023-04-03T06:30:51.161Z,16.52
2023-04-03T06:33:21.895Z,17.37
2023-04-03T06:35:59.686Z,18.04
2023-04-03T06:38:31.032Z,18.72
2023-04-03T06:41:02.290Z,19.33
2023-04-03T06:43:34.842Z,20.01
2023-04-03T06:46:06.270Z,20.71
2023-04-03T06:48:37.241Z,21.32
2023-04-03T06:51:23.420Z,21.60
2023-04-03T06:53:55.632Z,21.79
2023-04-03T06:56:27.449Z,21.97
2023-04-03T06:58:59.341Z,22.09
2023-04-03T07:01:32.010Z,22.25
2023-04-03T07:04:03.320Z,22.32
2023-04-03T07:06:34.704Z,22.47
2023-04-03T07:09:06.367Z,22.63
2023-04-03T07:11:37.136Z,22.80
2023-04-03T07:14:08.862Z,22.84
2023-04-03T07:16:41.905Z,22.78
2023-04-03T07:19:13.652Z,22.86
2023-04-03T07:21:44.482Z,22.93
2023-04-03T07:24:16.733Z,22.87
2023-04-03T07:26:50.842Z,22.78
2023-04-03T07:29:22.637Z,22.69
2023-04-03T07:31:54.307Z,22.69
2023-04-03T07:34:25.430Z,22.77
2023-04-03T07:36:56.190Z,22.91
2023-04-03T07:39:27.357Z,23.09
2023-04-03T07:41:58.293Z,23.39
2023-04-03T07:44:29.259Z,23.49
2023-04-03T07:47:00.932Z,23.56
2023-04-03T07:49:34.013Z,23.73
2023-04-03T07:52:05.254Z,23.81
2023-04-03T07:54:36.216Z,23.78
2023-04-03T07:57:07.807Z,23.83
2023-04-03T07:59:38.614Z,23.97
2023-04-03T08:02:10.626Z,24.05
2023-04-03T08:04:41.954Z,24.03
2023-04-03T08:07:12.737Z,23.85
2023-04-03T08:09:43.621Z,23.62
2023-04-03T08:12:15.900Z,23.34
2023-04-03T08:14:47.193Z,22.94
2023-04-03T08:17:18.230Z,22.37
2023-04-03T08:19:49.108Z,21.60
2023-04-03T08:22:19.884Z,20.71
2023-04-03T08:24:58.552Z,19.90
2023-04-03T08:27:30.284Z,19.14
2023-04-03T08:30:01.111Z,18.45
2023-04-03T08:32:32.144Z,18.03
2023-04-03T08:35:02.960Z,17.70
2023-04-03T08:37:33.921Z,17.31
2023-04-03T08:40:05.139Z,16.88
2023-04-03T08:42:48.352Z,16.48
2023-04-03T08:45:23.878Z,16.03
2023-04-03T08:48:02.716Z,15.72
2023-04-03T08:50:39.945Z,15.66
2023-04-03T08:53:17.128Z,15.72
2023-04-03T08:55:51.216Z,15.65
2023-04-03T08:58:23.934Z,15.60
2023-04-03T09:00:59.515Z,15.51
2023-04-03T09:03:34.302Z,15.46
2023-04-03T09:06:09.154Z,15.50
2023-04-03T09:08:48.647Z,15.46
2023-04-03T09:11:28.488Z,15.26
2023-04-03T09:14:05.033Z,15.00
2023-04-03T09:16:45.773Z,14.69
2023-04-03T09:19:26.100Z,14.32
2023-04-03T09:21:58.433Z,14.18
2023-04-03T09:24:30.242Z,14.06
2023-04-03T09:27:06.876Z,14.01
2023-04-03T09:29:41.220Z,13.75
2023-04-03T09:32:24.270Z,13.54
2023-04-03T09:34:59.733Z,13.49
2023-04-03T09:37:41.678Z,13.48
2023-04-03T09:43:28.299Z,13.52
2023-04-03T09:46:19.410Z,13.49
2023-04-03T09:49:08.222Z,13.38
2023-04-03T09:51:41.905Z,13.17
2023-04-03T09:54:42.108Z,13.08
2023-04-03T09:57:15.584Z,12.96
2023-04-03T09:59:59.036Z,12.85
2023-04-03T10:02:41.605Z,12.63
2023-04-03T10:05:30.789Z,12.52
2023-04-03T10:08:25.109Z,12.46
2023-04-03T10:14:01.329Z,12.23
2023-04-03T10:16:40.573Z,11.92
2023-04-03T10:19:36.727Z,11.52
2023-04-03T10:22:15.610Z,11.25
2023-04-03T10:25:02.944Z,11.07
2023-04-03T10:27:47.072Z,10.93
2023-04-03T10:30:45.426Z,10.91
2023-04-03T10:33:36.611Z,10.92
2023-04-03T10:36:18.581Z,10.83
2023-04-03T10:38:59.926Z,10.82
2023-04-03T10:41:42.271Z,10.78
2023-04-03T10:44:23.110Z,10.62
2023-04-03T10:47:03.706Z,10.45
2023-04-03T10:49:57.041Z,10.20
2023-04-03T10:52:41.162Z,9.95
2023-04-03T10:55:33.172Z,9.76
2023-04-03T10:58:07.120Z,9.55
2023-04-03T11:00:44.796Z,9.34
2023-04-03T11:03:19.591Z,9.24
2023-04-03T11:05:54.773Z,9.22
2023-04-03T11:08:32.484Z,9.24
2023-04-03T11:11:07.811Z,9.30
2023-04-03T11:13:45.296Z,9.30
2023-04-03T11:16:23.764Z,9.24
2023-04-03T11:18:58.447Z,9.22
2023-04-03T11:21:35.846Z,9.23
2023-04-03T11:24:18.094Z,9.18
2023-04-03T11:26:51.308Z,9.08
2023-04-03T11:29:34.854Z,8.94
2023-04-03T11:32:23.168Z,8.81
2023-04-03T11:34:57.651Z,8.73
2023-04-03T11:37:36.603Z,8.72
2023-04-03T11:40:12.300Z,8.73
2023-04-03T11:42:44.726Z,8.71
2023-04-03T11:45:41.167Z,8.74
2023-04-03T11:48:58.465Z,8.80
2023-04-03T11:51:46.676Z,8.79
2023-04-03T11:54:52.029Z,8.67
2023-04-03T11:58:03.989Z,8.50
2023-04-03T12:01:03.537Z,8.34
2023-04-03T12:04:08.249Z,8.20
2023-04-03T12:07:16.043Z,8.09
2023-04-03T12:10:31.244Z,8.08
2023-04-03T12:13:17.488Z,8.06
2023-04-03T12:16:05.178Z,8.05
2023-04-03T12:19:03.918Z,8.11
2023-04-03T12:22:14.528Z,8.21
2023-04-03T12:24:46.393Z,8.23
2023-04-03T12:27:35.382Z,8.18
2023-04-03T12:30:27.879Z,8.06
2023-04-03T12:33:22.795Z,8.04
2023-04-03T12:36:07.088Z,8.07
2023-04-03T12:38:52.945Z,8.09
2023-04-03T12:41:31.606Z,8.15
2023-04-03T12:44:30.472Z,8.19
2023-04-03T12:47:04.354Z,8.14
2023-04-03T12:49:41.541Z,8.07
2023-04-03T12:52:26.906Z,7.96
2023-04-03T12:54:58.825Z,7.87
2023-04-03T12:57:31.156Z,7.84
2023-04-03T13:00:20.760Z,7.78
2023-04-03T13:02:51.708Z,7.74
2023-04-03T13:05:24.135Z,7.70
2023-04-03T13:07:59.593Z,7.68
2023-04-03T13:10:30.577Z,7.66
2023-04-03T13:13:09.226Z,7.63
2023-04-03T13:15:47.281Z,7.61
2023-04-03T13:18:42.049Z,7.54
2023-04-03T13:21:19.792Z,7.47
2023-04-03T13:23:57.616Z,7.44
2023-04-03T13:26:35.953Z,7.47
2023-04-03T13:29:11.052Z,7.48
2023-04-03T13:31:48.643Z,7.53
2023-04-03T13:34:22.504Z,7.53
2023-04-03T13:37:02.330Z,7.49
2023-04-03T13:39:35.844Z,7.46
2023-04-03T13:42:24.768Z,7.43
2023-04-03T13:45:25.131Z,7.43
2023-04-03T13:48:22.035Z,7.42
2023-04-03T13:51:05.380Z,7.40
2023-04-03T13:53:44.417Z,7.43
2023-04-03T13:56:27.143Z,7.46
2023-04-03T13:59:08.450Z,7.51
2023-04-03T14:01:51.949Z,7.54
2023-04-03T14:04:25.487Z,7.55
2023-04-03T14:07:01.706Z,7.52
2023-04-03T14:09:36.034Z,7.48
2023-04-03T14:12:17.938Z,7.46
2023-04-03T14:14:56.990Z,7.42
2023-04-03T14:17:29.638Z,7.42
2023-04-03T14:20:05.586Z,7.42
2023-04-03T14:22:37.198Z,7.41
2023-04-03T14:25:09.663Z,7.37
2023-04-03T14:27:44.737Z,7.32
2023-04-03T14:30:24.294Z,7.30
2023-04-03T14:32:56.944Z,7.25
2023-04-03T14:35:34.537Z,7.19
2023-04-03T14:38:07.798Z,7.13
2023-04-03T14:40:38.690Z,7.06
2023-04-03T14:43:21.663Z,7.00
2023-04-03T14:45:53.101Z,6.93
2023-04-03T14:48:26.385Z,6.87
2023-04-03T14:51:06.546Z,6.81
2023-04-03T14:53:39.175Z,6.74
2023-04-03T14:56:15.950Z,6.70
2023-04-03T14:58:50.489Z,6.65
2023-04-03T15:01:22.382Z,6.64
2023-04-03T15:03:53.347Z,6.63
2023-04-03T15:06:24.696Z,6.64
2023-04-03T15:08:55.466Z,6.63
2023-04-03T15:11:27.789Z,6.59
2023-04-03T15:13:58.610Z,6.54
2023-04-03T15:16:29.668Z,6.49
2023-04-03T15:19:00.386Z,6.45
2023-04-03T15:21:31.132Z,6.42
2023-04-03T15:24:02.258Z,6.40
2023-04-03T15:26:33.572Z,6.38
2023-04-03T15:29:05.238Z,6.37
2023-04-03T15:31:36.188Z,6.38
2023-04-03T15:34:07.039Z,6.36
2023-04-03T15:36:37.843Z,6.36
2023-04-03T15:39:08.785Z,6.34
2023-04-03T15:41:39.655Z,6.30
2023-04-03T15:44:10.382Z,6.28
2023-04-03T15:46:42.254Z,6.21
2023-04-03T15:49:13.059Z,6.18
2023-04-03T15:51:49.047Z,6.14
2023-04-03T15:54:22.010Z,6.11
2023-04-03T15:56:52.803Z,6.08
2023-04-03T15:59:23.648Z,6.05
2023-04-03T16:01:56.474Z,6.01
2023-04-03T16:04:28.886Z,5.97
2023-04-03T16:07:02.670Z,5.93
2023-04-03T16:09:35.448Z,5.89
2023-04-03T16:12:10.487Z,5.87
2023-04-03T16:14:41.396Z,5.86
2023-04-03T16:17:12.573Z,5.84
2023-04-03T16:19:43.429Z,5.84
2023-04-03T16:22:15.379Z,5.83
2023-04-03T16:24:46.774Z,5.84
2023-04-03T16:27:21.417Z,5.84
2023-04-03T16:29:52.169Z,5.83
2023-04-03T16:32:24.437Z,5.80
2023-04-03T16:34:55.883Z,5.77
2023-04-03T16:37:27.973Z,5.75
2023-04-03T16:40:01.083Z,5.69
2023-04-03T16:42:32.688Z,5.65
2023-04-03T16:45:04.808Z,5.61
2023-04-03T16:47:35.800Z,5.55
2023-04-03T16:50:09.952Z,5.50
2023-04-03T16:53:35.694Z,5.47
2023-04-03T16:56:11.821Z,5.40
2023-04-03T16:58:45.865Z,5.36
2023-04-03T17:01:23.257Z,5.33
2023-04-03T17:03:55.638Z,5.29
2023-04-03T17:06:27.170Z,5.27
2023-04-03T17:09:07.908Z,5.26
2023-04-03T17:11:39.194Z,5.25
2023-04-03T17:14:12.325Z,5.23
2023-04-03T17:16:47.328Z,5.20
2023-04-03T17:19:18.515Z,5.19
2023-04-03T17:21:49.982Z,5.17
2023-04-03T17:24:21.968Z,5.15
2023-04-03T17:26:52.751Z,5.14
2023-04-03T17:29:25.441Z,5.11
2023-04-03T17:31:56.193Z,5.09
2023-04-03T17:34:27.045Z,5.06
2023-04-03T17:36:57.911Z,5.04
2023-04-03T17:39:30.123Z,5.01
2023-04-03T17:42:01.418Z,4.99
2023-04-03T17:44:34.765Z,4.97
2023-04-03T17:47:06.056Z,4.97
2023-04-03T17:50:26.309Z,4.96
2023-04-03T17:52:57.139Z,4.96
2023-04-03T17:55:28.272Z,4.94
2023-04-03T17:57:59.763Z,4.94
2023-04-03T18:00:30.843Z,4.93
2023-04-03T18:03:02.396Z,4.91
2023-04-03T18:05:33.339Z,4.89
2023-04-03T18:08:04.309Z,4.85
2023-04-03T18:10:36.821Z,4.83
2023-04-03T18:13:09.865Z,4.82
2023-04-03T18:15:45.776Z,4.80
2023-04-03T18:18:16.678Z,4.79
2023-04-03T18:20:47.503Z,4.78
2023-04-03T18:23:18.678Z,4.77
2023-04-03T18:25:49.409Z,4.74
2023-04-03T18:28:20.455Z,4.73
2023-04-03T18:30:51.613Z,4.73
2023-04-03T18:33:22.873Z,4.72
2023-04-03T18:35:54.324Z,4.70
2023-04-03T18:38:25.191Z,4.67
2023-04-03T18:40:56.767Z,4.62
2023-04-03T18:43:28.900Z,4.58
2023-04-03T18:45:59.653Z,4.54
2023-04-03T18:48:31.436Z,4.48
2023-04-03T18:51:02.791Z,4.42
2023-04-03T18:53:33.484Z,4.37
2023-04-03T18:56:04.405Z,4.34
2023-04-03T18:58:35.292Z,4.31
2023-04-03T19:01:06.662Z,4.26
2023-04-03T19:03:39.116Z,4.20
2023-04-03T19:06:11.309Z,4.16
2023-04-03T19:08:42.369Z,4.14
2023-04-03T19:11:13.296Z,4.13
2023-04-03T19:13:47.003Z,4.11
2023-04-03T19:16:37.953Z,4.07
2023-04-03T19:19:12.348Z,4.04
2023-04-03T19:21:43.554Z,4.01
2023-04-03T19:24:14.868Z,3.98
2023-04-03T19:26:46.633Z,3.97
2023-04-03T19:29:17.957Z,3.98
2023-04-03T19:31:48.791Z,3.98
2023-04-03T19:34:20.622Z,3.96
2023-04-03T19:36:52.295Z,3.94
2023-04-03T19:42:39.188Z,3.94
2023-04-03T19:45:14.927Z,3.95
2023-04-03T19:47:46.234Z,3.95
2023-04-03T19:50:18.302Z,3.94
2023-04-03T19:52:50.693Z,3.93
2023-04-03T19:55:25.641Z,3.93
2023-04-03T19:58:05.155Z,3.92
2023-04-03T20:00:37.415Z,3.92
2023-04-03T20:03:09.468Z,3.91
2023-04-03T20:05:46.608Z,3.88
2023-04-03T20:08:18.061Z,3.86
2023-04-03T20:10:50.383Z,3.84
2023-04-03T20:13:23.305Z,3.83
2023-04-03T20:16:00.814Z,3.83
2023-04-03T20:18:47.377Z,3.80
2023-04-03T20:21:19.445Z,3.77
2023-04-03T20:23:51.371Z,3.72
2023-04-03T20:26:31.857Z,3.71
2023-04-03T20:29:10.577Z,3.66
2023-04-03T20:31:44.997Z,3.61
2023-04-03T20:34:18.588Z,3.55
2023-04-03T20:36:50.057Z,3.52
2023-04-03T20:39:29.233Z,3.48
2023-04-03T20:42:00.236Z,3.44
2023-04-03T20:44:33.798Z,3.42
2023-04-03T20:47:04.642Z,3.38
2023-04-03T20:49:35.997Z,3.39
2023-04-03T20:52:06.773Z,3.36
2023-04-03T20:54:40.222Z,3.36
2023-04-03T20:57:11.061Z,3.36
2023-04-03T20:59:42.510Z,3.35
2023-04-03T21:02:13.352Z,3.34
2023-04-03T21:04:48.297Z,3.31
2023-04-03T21:07:54.741Z,3.29
2023-04-03T21:10:41.578Z,3.27
2023-04-03T21:13:50.002Z,3.25
2023-04-03T21:16:17.844Z,3.20
2023-04-03T21:18:59.541Z,3.17
2023-04-03T21:21:31.265Z,3.15
2023-04-03T21:24:07.498Z,3.13
2023-04-03T21:29:52.660Z,3.08
2023-04-03T21:32:23.681Z,3.07
2023-04-03T21:34:55.540Z,3.07
2023-04-03T21:37:29.871Z,3.06
2023-04-03T21:40:02.610Z,3.05
2023-04-03T21:42:33.358Z,3.02
2023-04-03T21:45:04.116Z,3.00
2023-04-03T21:47:35.654Z,2.98
2023-04-03T21:50:07.984Z,2.96
2023-04-03T21:52:38.763Z,2.94
2023-04-03T21:55:11.374Z,2.89
2023-04-03T21:57:42.511Z,2.84
2023-04-03T22:00:15.076Z,2.82
2023-04-03T22:02:45.949Z,2.80
2023-04-03T22:05:16.936Z,2.79
2023-04-03T22:07:48.620Z,2.78
2023-04-03T22:10:19.464Z,2.77
2023-04-03T22:12:50.199Z,2.74
2023-04-03T22:15:23.053Z,2.72
2023-04-03T22:17:54.534Z,2.71
2023-04-03T22:20:25.636Z,2.70
2023-04-03T22:22:56.379Z,2.68
2023-04-03T22:25:27.126Z,2.67
2023-04-03T22:27:58.035Z,2.63
2023-04-03T22:30:28.762Z,2.57
2023-04-03T22:32:59.454Z,2.51
2023-04-03T22:35:30.206Z,2.46
2023-04-03T22:38:00.924Z,2.40
2023-04-03T22:40:34.337Z,2.34
2023-04-03T22:43:05.312Z,2.29
2023-04-03T22:45:36.874Z,2.27
2023-04-03T22:48:08.202Z,2.22
2023-04-03T22:50:40.767Z,2.20
2023-04-03T22:53:13.474Z,2.18
2023-04-03T22:55:44.194Z,2.16
2023-04-03T22:58:14.886Z,2.15
2023-04-03T23:00:47.232Z,2.13
2023-04-03T23:03:18.234Z,2.10
2023-04-03T23:05:50.636Z,2.09
2023-04-03T23:08:21.773Z,2.07
2023-04-03T23:10:54.651Z,2.07
2023-04-03T23:13:26.080Z,2.06
2023-04-03T23:15:57.816Z,2.05
2023-04-03T23:18:30.326Z,2.05
2023-04-03T23:21:04.665Z,2.03
2023-04-03T23:23:35.528Z,2.04
2023-04-03T23:26:09.282Z,2.02
2023-04-03T23:28:41.874Z,2.02
2023-04-03T23:31:12.610Z,2.00
2023-04-03T23:33:44.066Z,1.97
2023-04-03T23:36:16.218Z,1.94
2023-04-03T23:38:47.139Z,1.91
2023-04-03T23:41:21.164Z,1.88
2023-04-03T23:43:52.022Z,1.85
2023-04-03T23:46:22.866Z,1.83
2023-04-03T23:48:53.583Z,1.80
2023-04-03T23:51:24.419Z,1.78
2023-04-03T23:53:55.188Z,1.76
2023-04-03T23:56:25.954Z,1.73
2023-04-03T23:58:57.280Z,1.71
